Time;durP1;ratioP1;P1;durP2;ratioP2;P2;SDS_P1;SDS_P2;PMS_P1;PMS_P2;Temp;Humidity;BMP_temperature;BMP_pressure;BME280_temperature;BME280_humidity;BME280_pressure;Samples;Min_cycle;Max_cycle;Signal;HPM_P1;HPM_P2
2023/04/03 00:01:33;;;;;;;5.10;2.60;;;20.10;99.90;;;;;;5053563;28;20204;-75
2023/04/03 00:04:04;;;;;;;5.35;2.60;;;20.10;99.90;;;;;;5053110;28;20203;-75
2023/04/03 00:06:35;;;;;;;6.07;2.42;;;20.10;99.90;;;;;;5052850;28;20281;-75
2023/04/03 00:09:07;;;;;;;7.18;2.50;;;20.00;99.90;;;;;;5053821;28;20219;-75
2023/04/03 00:11:40;;;;;;;5.55;2.20;;;20.00;99.90;;;;;;5054145;28;20203;-75
2023/04/03 00:14:11;;;;;;;8.65;2.53;;;20.00;99.90;;;;;;5055025;28;20242;-75
2023/04/03 00:16:42;;;;;;;7.50;2.90;;;20.00;99.90;;;;;;5054197;28;20211;-76
2023/04/03 00:19:13;;;;;;;9.07;3.00;;;20.00;99.90;;;;;;5051820;28;20207;-75
2023/04/03 00:21:45;;;;;;;6.38;2.78;;;20.00;99.90;;;;;;5057423;28;20764;-76
2023/04/03 00:24:16;;;;;;;5.65;2.55;;;20.10;99.90;;;;;;5055251;28;20260;-76
2023/04/03 00:26:49;;;;;;;4.43;2.05;;;20.00;99.90;;;;;;5053192;28;20243;-76
2023/04/03 00:29:20;;;;;;;4.40;2.22;;;20.00;99.90;;;;;;5051726;28;20227;-75
2023/04/03 00:31:51;;;;;;;7.93;2.42;;;20.10;99.90;;;;;;5061812;28;20215;-75
2023/04/03 00:34:22;;;;;;;4.97;2.05;;;20.10;99.90;;;;;;5051843;28;20206;-75
2023/04/03 00:36:53;;;;;;;7.80;2.00;;;20.10;99.90;;;;;;5050909;28;20203;-75
2023/04/03 00:39:24;;;;;;;6.32;1.95;;;20.10;99.90;;;;;;5055665;28;20264;-76
2023/04/03 00:41:57;;;;;;;6.22;2.17;;;20.20;99.90;;;;;;5052661;28;20231;-75
2023/04/03 00:45:00;;;;;;;12.23;2.85;;;20.20;99.90;;;;;;5052652;28;20202;-76
2023/04/03 00:47:32;;;;;;;7.55;2.30;;;20.30;99.90;;;;;;5051096;28;20196;-76
2023/04/03 00:50:04;;;;;;;8.82;2.80;;;20.30;99.90;;;;;;5054971;28;20345;-75
2023/04/03 00:52:36;;;;;;;10.20;2.83;;;20.40;99.90;;;;;;5052669;28;20238;-76
2023/04/03 00:55:10;;;;;;;5.20;2.35;;;20.50;99.90;;;;;;5056106;28;20204;-75
2023/04/03 00:57:43;;;;;;;6.03;2.10;;;20.70;99.90;;;;;;5050701;28;20195;-75
2023/04/03 01:00:18;;;;;;;9.32;2.60;;;20.80;99.90;;;;;;5052533;28;20195;-76
2023/04/03 01:02:49;;;;;;;6.45;2.30;;;21.00;99.90;;;;;;5052205;28;20227;-76
2023/04/03 01:05:22;;;;;;;6.85;2.55;;;21.10;99.90;;;;;;5052233;28;20211;-76
2023/04/03 01:07:55;;;;;;;6.50;2.28;;;21.10;99.90;;;;;;5052277;28;21402;-76
2023/04/03 01:10:26;;;;;;;6.95;1.90;;;21.10;99.90;;;;;;5055302;28;21443;-76
2023/04/03 01:12:59;;;;;;;5.90;2.30;;;21.10;99.90;;;;;;5052355;28;20211;-75
2023/04/03 01:15:34;;;;;;;5.43;2.78;;;21.10;99.90;;;;;;5053304;28;20199;-76
2023/04/03 01:18:06;;;;;;;7.22;2.55;;;21.20;99.90;;;;;;5055567;28;20208;-75
2023/04/03 01:21:08;;;;;;;5.50;2.40;;;21.30;99.90;;;;;;5052265;28;20265;-76
2023/04/03 01:24:07;;;;;;;5.28;2.20;;;21.40;99.90;;;;;;5050252;28;20235;-76
2023/04/03 01:26:39;;;;;;;5.47;2.40;;;21.50;99.90;;;;;;5050356;28;20206;-76
2023/04/03 01:29:12;;;;;;;6.45;2.72;;;21.70;99.90;;;;;;5052892;28;20215;-75
2023/04/03 01:31:53;;;;;;;6.10;2.70;;;21.80;99.90;;;;;;5051365;28;20214;-77
2023/04/03 01:34:24;;;;;;;8.65;2.70;;;21.90;99.90;;;;;;5052988;28;20207;-77
2023/04/03 01:36:55;;;;;;;4.85;2.08;;;21.90;99.90;;;;;;5050185;28;20696;-76
2023/04/03 01:39:27;;;;;;;5.95;1.60;;;21.90;99.90;;;;;;5056922;28;20199;-78
2023/04/03 01:41:59;;;;;;;6.53;1.77;;;22.00;99.90;;;;;;5053659;28;20251;-78
2023/04/03 01:44:30;;;;;;;6.53;1.55;;;22.00;99.90;;;;;;5056740;28;20681;-77
2023/04/03 01:47:03;;;;;;;4.85;1.48;;;22.10;99.90;;;;;;5055167;28;20199;-76
2023/04/03 01:49:34;;;;;;;4.88;1.10;;;22.10;99.90;;;;;;5055792;28;20360;-76
2023/04/03 01:52:05;;;;;;;5.47;1.27;;;22.20;99.90;;;;;;5055930;28;20199;-77
2023/04/03 01:54:36;;;;;;;4.00;0.93;;;22.30;99.90;;;;;;5053295;28;22169;-77
2023/04/03 01:57:07;;;;;;;5.20;1.30;;;22.40;99.90;;;;;;5054913;28;20217;-77
2023/04/03 01:59:38;;;;;;;6.13;1.23;;;22.50;99.90;;;;;;5056494;28;20574;-78
2023/04/03 02:02:12;;;;;;;7.40;1.50;;;22.60;99.90;;;;;;5054105;28;20200;-76
2023/04/03 02:04:43;;;;;;;2.90;1.02;;;22.60;99.90;;;;;;5054706;28;20283;-76
2023/04/03 02:07:14;;;;;;;4.65;1.30;;;22.70;99.90;;;;;;5057622;28;20191;-77
2023/04/03 02:09:45;;;;;;;3.42;0.95;;;22.80;99.90;;;;;;5089112;28;20222;-77
2023/04/03 02:12:16;;;;;;;4.50;1.33;;;22.80;99.90;;;;;;5084693;28;20204;-78
2023/04/03 02:14:47;;;;;;;4.45;0.93;;;22.80;99.90;;;;;;5088115;28;20597;-77
2023/04/03 02:17:21;;;;;;;4.35;0.80;;;22.90;99.90;;;;;;5089087;28;20650;-77
2023/04/03 02:19:52;;;;;;;3.25;0.98;;;22.90;99.90;;;;;;5083977;28;20735;-78
2023/04/03 02:22:23;;;;;;;5.38;1.20;;;23.00;99.90;;;;;;5087934;28;20192;-77
2023/04/03 02:24:54;;;;;;;2.70;0.88;;;23.10;99.90;;;;;;5053254;28;20215;-77
2023/04/03 02:27:25;;;;;;;3.97;1.10;;;23.10;99.90;;;;;;5053478;28;20211;-76
2023/04/03 02:29:56;;;;;;;4.88;0.93;;;23.20;99.90;;;;;;5056174;28;20223;-76
2023/04/03 02:32:29;;;;;;;3.30;1.00;;;23.40;99.90;;;;;;5053330;28;20200;-77
2023/04/03 02:35:00;;;;;;;3.63;0.88;;;23.50;99.90;;;;;;5053323;28;20204;-78
2023/04/03 02:37:32;;;;;;;4.55;0.88;;;23.60;99.90;;;;;;5052958;28;20446;-78
2023/04/03 02:40:03;;;;;;;6.13;1.13;;;23.60;99.90;;;;;;5058824;28;20236;-78
2023/04/03 02:42:34;;;;;;;3.35;0.93;;;23.70;99.90;;;;;;5056393;28;20216;-77
2023/04/03 02:45:06;;;;;;;6.07;0.98;;;23.80;99.90;;;;;;5058118;28;20268;-77
2023/04/03 02:47:39;;;;;;;3.83;0.90;;;23.80;99.90;;;;;;5057009;28;20199;-77
2023/04/03 02:50:10;;;;;;;3.65;0.80;;;23.90;99.90;;;;;;5054670;28;20212;-77
2023/04/03 02:52:41;;;;;;;3.97;1.00;;;23.90;99.90;;;;;;5054975;28;20258;-76
2023/04/03 02:55:16;;;;;;;3.97;0.80;;;24.10;99.90;;;;;;5053515;28;20200;-77
2023/04/03 02:57:47;;;;;;;4.57;0.90;;;24.10;99.90;;;;;;5052005;28;20658;-77
2023/04/03 03:00:18;;;;;;;3.67;0.90;;;24.20;99.90;;;;;;5054945;28;20200;-78
2023/04/03 03:02:52;;;;;;;5.03;1.00;;;24.20;99.90;;;;;;5054670;28;20200;-78
2023/04/03 03:05:23;;;;;;;6.60;1.23;;;24.10;99.90;;;;;;5054183;28;20210;-77
2023/04/03 03:07:55;;;;;;;3.88;0.82;;;24.00;99.90;;;;;;5053236;28;20200;-77
2023/04/03 03:10:28;;;;;;;6.20;1.10;;;24.00;99.90;;;;;;5058228;28;20230;-78
2023/04/03 03:12:59;;;;;;;5.00;0.93;;;24.00;99.90;;;;;;5075337;28;20195;-77
2023/04/03 03:15:30;;;;;;;4.28;0.98;;;24.10;99.90;;;;;;5082049;28;20706;-78
2023/04/03 03:18:03;;;;;;;2.83;0.98;;;24.20;99.90;;;;;;5071260;28;20200;-78
2023/04/03 03:20:34;;;;;;;4.57;0.88;;;24.30;99.90;;;;;;5071423;28;20203;-78
2023/04/03 03:23:05;;;;;;;2.20;0.55;;;24.30;99.90;;;;;;5073795;28;20200;-77
2023/04/03 03:25:40;;;;;;;2.15;0.80;;;24.30;99.90;;;;;;5071633;28;20203;-79
2023/04/03 03:28:11;;;;;;;3.50;0.90;;;24.40;99.90;;;;;;5072898;28;20210;-77
2023/04/03 03:30:42;;;;;;;5.93;0.90;;;24.50;99.90;;;;;;5075133;28;20686;-78
2023/04/03 03:33:17;;;;;;;5.70;1.08;;;24.50;99.90;;;;;;5092969;28;20546;-78
2023/04/03 03:35:48;;;;;;;3.78;1.02;;;24.70;99.90;;;;;;5077548;28;20200;-78
2023/04/03 03:38:19;;;;;;;4.18;0.80;;;24.70;99.90;;;;;;5088115;28;20200;-77
2023/04/03 03:40:52;;;;;;;7.00;1.20;;;24.80;99.90;;;;;;5092645;28;20195;-77
2023/04/03 03:43:24;;;;;;;3.78;0.80;;;24.70;99.90;;;;;;5093020;28;20282;-78
2023/04/03 03:45:56;;;;;;;7.28;1.30;;;24.70;99.90;;;;;;5092558;28;20236;-77
2023/04/03 03:48:32;;;;;;;3.20;0.98;;;24.70;99.90;;;;;;5096124;28;20191;-76
2023/04/03 03:51:03;;;;;;;4.60;0.90;;;24.60;99.90;;;;;;5087386;28;20219;-78
2023/04/03 03:53:34;;;;;;;4.72;0.95;;;24.60;99.90;;;;;;5079593;28;20199;-76
2023/04/03 03:56:06;;;;;;;3.75;1.00;;;24.50;99.90;;;;;;5073386;28;20195;-77
2023/04/03 03:58:37;;;;;;;6.22;1.27;;;24.50;99.90;;;;;;5076556;28;20278;-77
2023/04/03 04:01:09;;;;;;;5.13;1.00;;;24.40;99.90;;;;;;5093320;28;20661;-77
2023/04/03 04:03:42;;;;;;;5.03;1.00;;;24.30;99.90;;;;;;5093064;28;20201;-77
2023/04/03 04:06:13;;;;;;;2.92;0.82;;;24.30;99.90;;;;;;5080720;28;20200;-79
2023/04/03 04:08:44;;;;;;;6.57;1.10;;;24.20;99.90;;;;;;5089161;28;20202;-78
2023/04/03 04:11:15;;;;;;;6.78;1.10;;;24.10;99.90;;;;;;5073821;28;20231;-77
2023/04/03 04:13:46;;;;;;;5.95;1.30;;;24.10;99.90;;;;;;5072320;28;20232;-77
2023/04/03 04:16:17;;;;;;;9.10;1.10;;;24.10;99.90;;;;;;5073036;28;20199;-77
2023/04/03 04:18:50;;;;;;;3.55;0.70;;;24.10;99.90;;;;;;5072814;28;20195;-77
2023/04/03 04:21:21;;;;;;;6.50;1.15;;;24.10;99.90;;;;;;5071340;28;20426;-77
2023/04/03 04:23:52;;;;;;;4.20;1.30;;;24.00;99.90;;;;;;5073460;28;20257;-77
2023/04/03 04:26:24;;;;;;;6.00;1.08;;;24.00;99.90;;;;;;5072433;28;20737;-77
2023/04/03 04:28:55;;;;;;;8.45;1.20;;;24.00;99.90;;;;;;5072743;28;20195;-77
2023/04/03 04:31:26;;;;;;;5.53;1.10;;;24.10;99.90;;;;;;5072292;28;20228;-77
2023/04/03 04:33:59;;;;;;;6.20;1.13;;;24.10;99.90;;;;;;5072147;28;20211;-77
2023/04/03 04:36:31;;;;;;;4.28;0.90;;;24.10;99.90;;;;;;5073037;28;20191;-76
2023/04/03 04:39:02;;;;;;;4.43;1.08;;;24.00;99.90;;;;;;5081012;28;20191;-77
2023/04/03 04:41:33;;;;;;;6.57;1.20;;;23.90;99.90;;;;;;5090277;28;20703;-78
2023/04/03 04:44:04;;;;;;;5.72;0.88;;;23.90;99.90;;;;;;5084084;28;20222;-78
2023/04/03 04:46:36;;;;;;;4.88;1.00;;;23.90;99.90;;;;;;5072308;28;20246;-77
2023/04/03 04:49:09;;;;;;;5.18;1.35;;;23.90;99.90;;;;;;5076584;28;20199;-78
2023/04/03 04:51:40;;;;;;;6.25;1.30;;;24.00;99.90;;;;;;5081503;28;20227;-77
2023/04/03 04:54:11;;;;;;;4.90;1.00;;;24.00;99.90;;;;;;5074808;28;20192;-76
2023/04/03 04:56:42;;;;;;;4.30;0.90;;;24.00;99.90;;;;;;5091146;28;20549;-77
2023/04/03 04:59:15;;;;;;;3.03;1.00;;;24.10;99.90;;;;;;5091245;28;20666;-77
2023/04/03 05:01:46;;;;;;;3.22;0.82;;;24.00;99.90;;;;;;5084178;28;20207;-78
2023/04/03 05:04:19;;;;;;;7.60;0.98;;;24.10;99.90;;;;;;5080711;28;20231;-78
2023/04/03 05:06:51;;;;;;;3.50;0.95;;;24.00;99.90;;;;;;5072457;28;20196;-78
2023/04/03 05:09:22;;;;;;;2.63;0.70;;;23.80;99.90;;;;;;5086473;28;20209;-77
2023/04/03 05:11:53;;;;;;;3.63;0.82;;;23.70;99.90;;;;;;5087321;28;20215;-78
2023/04/03 05:14:24;;;;;;;4.07;0.90;;;23.60;99.90;;;;;;5093168;28;20230;-78
2023/04/03 05:16:55;;;;;;;3.83;0.82;;;23.60;99.90;;;;;;5075599;28;20200;-77
2023/04/03 05:19:28;;;;;;;2.50;0.82;;;23.60;99.90;;;;;;5072937;28;20559;-78
2023/04/03 05:21:59;;;;;;;3.13;0.80;;;23.60;99.90;;;;;;5090903;28;20218;-77
2023/04/03 05:24:30;;;;;;;5.00;0.88;;;23.60;99.90;;;;;;5088697;28;20206;-77
2023/04/03 05:27:01;;;;;;;6.38;1.20;;;23.60;99.90;;;;;;5092005;28;20199;-78
2023/04/03 05:29:33;;;;;;;2.70;0.90;;;23.70;99.90;;;;;;5090056;28;20706;-77
2023/04/03 05:32:04;;;;;;;5.25;1.10;;;23.60;99.90;;;;;;5079278;28;20241;-78
2023/04/03 05:34:37;;;;;;;6.05;1.00;;;23.60;99.90;;;;;;5079280;28;20200;-77
2023/04/03 05:37:11;;;;;;;5.47;0.95;;;23.60;99.90;;;;;;5074075;28;20203;-80
2023/04/03 05:39:42;;;;;;;4.88;1.00;;;23.70;99.90;;;;;;5078008;28;20195;-78
2023/04/03 05:42:17;;;;;;;6.82;1.30;;;23.70;99.90;;;;;;5093676;28;20226;-77
2023/04/03 05:44:49;;;;;;;4.93;0.93;;;23.80;99.90;;;;;;5072623;28;20209;-75
2023/04/03 05:47:21;;;;;;;4.20;0.80;;;23.80;99.90;;;;;;5088455;28;20227;-78
2023/04/03 05:49:54;;;;;;;4.60;1.00;;;23.80;99.90;;;;;;5093165;28;20270;-78
2023/04/03 05:52:29;;;;;;;5.35;0.95;;;23.90;99.90;;;;;;5081427;28;20231;-77
2023/04/03 05:55:00;;;;;;;5.88;1.30;;;24.00;99.90;;;;;;5076411;28;20202;-77
2023/04/03 05:57:32;;;;;;;3.22;0.80;;;24.10;99.90;;;;;;5093464;28;20198;-76
2023/04/03 06:00:03;;;;;;;4.68;0.90;;;24.20;99.90;;;;;;5087139;28;20310;-77
2023/04/03 06:02:35;;;;;;;5.30;1.00;;;24.20;99.90;;;;;;5072729;28;20203;-76
2023/04/03 06:05:09;;;;;;;6.18;0.95;;;24.10;99.90;;;;;;5077020;28;20207;-77
2023/04/03 06:07:40;;;;;;;6.03;0.95;;;24.30;99.90;;;;;;5092224;28;20252;-77
2023/04/03 06:10:15;;;;;;;5.80;1.20;;;24.30;99.90;;;;;;5091669;28;20218;-77
2023/04/03 06:12:46;;;;;;;3.92;0.88;;;24.50;99.90;;;;;;5087037;28;20203;-77
2023/04/03 06:15:17;;;;;;;4.00;0.88;;;24.60;99.90;;;;;;5071676;28;20224;-77
2023/04/03 06:17:48;;;;;;;6.15;1.00;;;24.60;99.90;;;;;;5083897;28;20195;-77
2023/04/03 06:20:22;;;;;;;4.18;0.90;;;24.70;99.90;;;;;;5091264;28;20295;-77
2023/04/03 06:22:53;;;;;;;3.47;0.90;;;24.70;99.90;;;;;;5092420;28;20233;-77
2023/04/03 06:25:24;;;;;;;5.78;1.42;;;24.80;99.90;;;;;;5086425;28;20200;-77
2023/04/03 06:27:55;;;;;;;2.80;0.90;;;24.90;99.90;;;;;;5070867;28;20196;-77
2023/04/03 06:30:26;;;;;;;6.57;1.35;;;24.90;99.90;;;;;;5080031;28;20599;-77
2023/04/03 06:32:59;;;;;;;6.18;0.90;;;24.70;99.90;;;;;;5077765;28;20736;-77
2023/04/03 06:35:34;;;;;;;7.47;1.50;;;24.70;99.90;;;;;;5091475;28;20670;-77
2023/04/03 06:38:09;;;;;;;8.68;1.40;;;24.60;99.90;;;;;;5088314;28;20203;-77
2023/04/03 06:40:40;;;;;;;6.15;1.15;;;24.50;99.90;;;;;;5088179;28;20608;-76
2023/04/03 06:43:11;;;;;;;6.47;1.00;;;24.30;99.90;;;;;;5087167;28;20221;-77
2023/04/03 06:45:42;;;;;;;4.78;1.75;;;24.20;99.90;;;;;;5096036;28;20199;-77
2023/04/03 06:48:13;;;;;;;5.68;1.05;;;23.90;99.90;;;;;;5096308;28;20195;-77
2023/04/03 06:50:46;;;;;;;3.58;0.80;;;23.70;99.90;;;;;;5085845;28;20569;-77
2023/04/03 06:53:17;;;;;;;3.80;1.10;;;23.60;99.90;;;;;;5091417;28;20203;-77
2023/04/03 06:55:49;;;;;;;4.57;1.00;;;23.50;99.90;;;;;;5094596;28;20202;-78
2023/04/03 06:58:21;;;;;;;4.75;1.20;;;23.50;99.90;;;;;;5086632;28;20203;-79
2023/04/03 07:00:53;;;;;;;4.82;0.95;;;23.40;99.90;;;;;;5077174;28;20211;-79
2023/04/03 07:03:24;;;;;;;7.57;1.30;;;23.40;99.90;;;;;;5093667;28;20650;-80
2023/04/03 07:05:57;;;;;;;6.13;1.40;;;23.30;99.90;;;;;;5095968;28;20190;-81
2023/04/03 07:08:28;;;;;;;5.15;1.15;;;23.30;99.90;;;;;;5074535;28;20188;-81
2023/04/03 07:11:01;;;;;;;5.90;1.23;;;23.20;99.90;;;;;;5073717;28;20212;-81
2023/04/03 07:13:33;;;;;;;4.38;1.00;;;23.20;99.90;;;;;;5081863;28;20219;-80
2023/04/03 07:16:04;;;;;;;6.60;1.10;;;23.10;99.90;;;;;;5073451;28;20196;-80
2023/04/03 07:18:38;;;;;;;5.95;1.10;;;23.10;99.90;;;;;;5080271;28;20282;-77
2023/04/03 07:21:11;;;;;;;4.47;1.15;;;23.00;99.90;;;;;;5077242;28;20203;-78
2023/04/03 07:23:42;;;;;;;8.23;1.60;;;22.80;99.90;;;;;;5073613;28;20650;-77
2023/04/03 07:26:13;;;;;;;5.65;1.20;;;22.80;99.90;;;;;;5092698;28;20199;-77
2023/04/03 07:28:47;;;;;;;4.55;1.10;;;22.80;99.90;;;;;;5075665;28;20199;-77
2023/04/03 07:31:18;;;;;;;4.70;1.17;;;22.80;99.90;;;;;;5075945;28;20223;-77
2023/04/03 07:33:50;;;;;;;6.15;1.10;;;22.60;99.90;;;;;;5079582;28;20194;-77
2023/04/03 07:36:25;;;;;;;5.60;1.10;;;22.60;99.90;;;;;;5085607;28;20199;-77
2023/04/03 07:38:59;;;;;;;4.85;1.20;;;22.60;99.90;;;;;;5082441;28;20187;-76
2023/04/03 07:41:30;;;;;;;6.97;1.38;;;22.50;99.90;;;;;;5082875;28;20228;-77
2023/04/03 07:44:02;;;;;;;7.50;1.10;;;22.50;99.90;;;;;;5079872;28;20210;-79
2023/04/03 07:46:33;;;;;;;4.90;1.27;;;22.40;99.90;;;;;;5089520;28;20195;-78
2023/04/03 07:49:04;;;;;;;6.05;1.67;;;22.40;99.90;;;;;;5082221;28;20203;-79
2023/04/03 07:51:37;;;;;;;5.18;1.48;;;22.40;99.90;;;;;;5074103;28;20230;-78
2023/04/03 07:54:08;;;;;;;7.18;1.40;;;22.30;99.90;;;;;;5076212;28;20192;-77
2023/04/03 07:56:40;;;;;;;5.90;1.50;;;22.30;99.90;;;;;;5073765;28;20559;-77
2023/04/03 07:59:11;;;;;;;6.30;1.30;;;22.30;99.90;;;;;;5077234;28;20627;-77
2023/04/03 08:01:42;;;;;;;8.52;1.50;;;22.20;99.90;;;;;;5073455;28;20651;-77
2023/04/03 08:04:13;;;;;;;5.90;1.23;;;22.20;99.90;;;;;;5084769;28;20278;-77
2023/04/03 08:06:46;;;;;;;8.57;1.45;;;22.20;99.90;;;;;;5091817;28;20206;-77
2023/04/03 08:09:18;;;;;;;8.98;1.77;;;22.20;99.90;;;;;;5072078;28;20650;-77
2023/04/03 08:11:52;;;;;;;6.65;1.35;;;22.20;99.90;;;;;;5069627;28;20222;-77
2023/04/03 08:14:24;;;;;;;4.95;1.08;;;22.10;99.90;;;;;;5077494;28;20231;-78
2023/04/03 08:16:55;;;;;;;5.38;1.33;;;22.10;99.90;;;;;;5091033;28;20669;-78
2023/04/03 08:19:26;;;;;;;6.32;1.30;;;22.00;99.90;;;;;;5091458;28;20205;-78
2023/04/03 08:22:02;;;;;;;9.15;1.55;;;22.00;99.90;;;;;;5071850;28;20203;-78
2023/04/03 08:24:33;;;;;;;4.00;1.13;;;22.00;99.90;;;;;;5078332;28;20276;-78
2023/04/03 08:27:04;;;;;;;6.65;1.35;;;22.00;99.90;;;;;;5080589;28;20569;-78
2023/04/03 08:29:37;;;;;;;5.15;1.48;;;22.00;99.90;;;;;;5086165;28;20192;-78
2023/04/03 08:32:08;;;;;;;6.80;1.50;;;21.90;99.90;;;;;;5069877;28;20223;-78
2023/04/03 08:34:39;;;;;;;7.13;1.33;;;21.90;99.90;;;;;;5076780;28;20196;-77
2023/04/03 08:37:13;;;;;;;3.72;1.10;;;21.90;99.90;;;;;;5076887;28;20196;-78
2023/04/03 08:39:44;;;;;;;7.80;1.40;;;21.90;99.90;;;;;;5084745;28;20236;-77
2023/04/03 08:42:22;;;;;;;5.95;1.20;;;21.80;99.90;;;;;;5086448;28;20219;-77
2023/04/03 08:45:03;;;;;;;4.63;1.05;;;21.80;99.90;;;;;;5083473;28;20192;-77
2023/04/03 08:47:43;;;;;;;3.80;1.10;;;21.90;99.90;;;;;;5073411;28;20654;-78
2023/04/03 08:50:19;;;;;;;4.78;1.02;;;21.90;99.90;;;;;;5089132;28;20211;-79
2023/04/03 08:52:55;;;;;;;6.70;1.33;;;21.90;99.90;;;;;;5074695;28;20258;-78
2023/04/03 08:55:29;;;;;;;5.70;1.23;;;21.90;99.90;;;;;;5070988;28;20210;-78
2023/04/03 08:58:05;;;;;;;6.72;1.10;;;21.90;99.90;;;;;;5075352;28;20194;-77
2023/04/03 09:00:44;;;;;;;6.07;1.13;;;21.90;99.90;;;;;;5070712;28;20560;-77
2023/04/03 09:03:17;;;;;;;4.63;1.13;;;21.90;99.90;;;;;;5083463;28;20194;-79
2023/04/03 09:05:52;;;;;;;5.55;1.10;;;21.90;99.90;;;;;;5081910;28;20194;-78
2023/04/03 09:08:28;;;;;;;5.65;1.38;;;22.00;99.90;;;;;;5087822;28;20187;-79
2023/04/03 09:11:09;;;;;;;7.68;1.20;;;22.00;99.90;;;;;;5082731;28;20198;-79
2023/04/03 09:13:47;;;;;;;5.30;1.25;;;22.00;99.90;;;;;;5077174;28;20323;-78
2023/04/03 09:16:27;;;;;;;4.78;1.10;;;22.00;99.90;;;;;;5077206;28;20231;-78
2023/04/03 09:19:09;;;;;;;5.05;0.93;;;21.90;99.90;;;;;;5079094;28;20200;-78
2023/04/03 09:21:42;;;;;;;4.35;1.00;;;21.90;99.90;;;;;;5078343;28;20195;-76
2023/04/03 09:24:18;;;;;;;3.00;0.98;;;21.90;99.90;;;;;;5073062;28;20195;-77
2023/04/03 09:26:54;;;;;;;4.93;0.93;;;22.00;99.90;;;;;;5082191;28;20191;-77
2023/04/03 09:29:27;;;;;;;5.68;1.15;;;22.00;99.90;;;;;;5084288;28;20305;-77
2023/04/03 09:32:02;;;;;;;6.18;1.23;;;22.00;99.90;;;;;;5085797;28;20223;-77
2023/04/03 09:34:36;;;;;;;4.03;1.08;;;21.90;99.90;;;;;;5078303;28;20207;-78
2023/04/03 09:37:08;;;;;;;7.60;1.40;;;22.00;99.90;;;;;;5084489;28;20194;-78
2023/04/03 09:39:56;;;;;;;6.07;1.65;;;21.90;99.90;;;;;;5076399;28;20215;-79
2023/04/03 09:42:28;;;;;;;3.55;1.00;;;21.90;99.90;;;;;;5091628;28;20249;-78
2023/04/03 09:45:02;;;;;;;4.72;1.17;;;21.90;99.90;;;;;;5083403;28;20191;-78
2023/04/03 09:47:35;;;;;;;4.65;1.35;;;21.90;99.90;;;;;;5078945;28;20217;-78
2023/04/03 09:50:27;;;;;;;9.60;1.17;;;21.90;99.90;;;;;;5079286;28;20206;-80
2023/04/03 09:52:58;;;;;;;5.40;1.10;;;21.90;99.90;;;;;;5086431;28;20227;-78
2023/04/03 09:55:31;;;;;;;4.30;1.08;;;21.90;99.90;;;;;;5091896;28;20195;-78
2023/04/03 09:58:04;;;;;;;5.65;0.88;;;21.90;99.90;;;;;;5092839;28;20191;-78
2023/04/03 10:00:38;;;;;;;5.45;1.20;;;21.90;99.90;;;;;;5090432;28;20689;-77
2023/04/03 10:03:27;;;;;;;3.88;1.02;;;21.90;99.90;;;;;;5076834;28;20195;-77
2023/04/03 10:05:58;;;;;;;4.57;1.25;;;21.90;99.90;;;;;;5093717;28;20210;-80
2023/04/03 10:08:31;;;;;;;5.28;1.60;;;21.90;99.90;;;;;;5089424;28;20195;-79
2023/04/03 10:11:16;;;;;;;3.13;1.08;;;21.90;99.90;;;;;;5075962;28;20200;-79
2023/04/03 10:13:59;;;;;;;4.30;1.00;;;21.80;99.90;;;;;;5083992;28;20230;-77
2023/04/03 10:16:38;;;;;;;4.32;1.20;;;21.80;99.90;;;;;;5075713;28;20199;-79
2023/04/03 10:19:35;;;;;;;4.85;0.88;;;21.80;99.90;;;;;;5099944;28;20195;-78
2023/04/03 10:22:43;;;;;;;3.13;0.90;;;21.80;99.90;;;;;;5096586;28;20195;-84
2023/04/03 10:25:23;;;;;;;4.22;1.00;;;21.80;99.90;;;;;;5094628;28;20206;-79
2023/04/03 10:28:02;;;;;;;5.35;1.10;;;21.80;99.90;;;;;;5095002;28;20577;-78
2023/04/03 10:30:44;;;;;;;4.22;1.15;;;21.80;99.90;;;;;;5083056;28;20191;-79
2023/04/03 10:33:45;;;;;;;5.10;1.27;;;21.80;99.90;;;;;;5092708;28;20222;-76
2023/04/03 10:36:25;;;;;;;5.57;1.00;;;21.80;99.90;;;;;;5096396;28;20207;-79
2023/04/03 10:39:04;;;;;;;6.10;1.17;;;21.80;99.90;;;;;;5095507;28;20183;-78
2023/04/03 10:41:49;;;;;;;4.22;1.17;;;21.80;99.90;;;;;;5082706;28;20220;-78
2023/04/03 10:44:30;;;;;;;4.78;1.33;;;21.80;99.90;;;;;;5079202;28;20215;-78
2023/04/03 10:47:09;;;;;;;4.63;1.10;;;21.80;99.90;;;;;;5095750;28;20573;-78
2023/04/03 10:49:54;;;;;;;3.55;0.88;;;21.70;99.90;;;;;;5095845;28;20221;-77
2023/04/03 10:52:31;;;;;;;3.47;0.98;;;21.70;99.90;;;;;;5087179;28;20223;-77
2023/04/03 10:55:10;;;;;;;4.10;1.00;;;21.70;99.90;;;;;;5092684;28;20654;-79
2023/04/03 10:57:42;;;;;;;4.43;0.80;;;21.70;99.90;;;;;;5090197;28;20199;-78
2023/04/03 11:00:22;;;;;;;4.45;0.82;;;21.70;99.90;;;;;;5078416;28;20188;-78
2023/04/03 11:02:57;;;;;;;4.82;1.00;;;21.70;99.90;;;;;;5093719;28;20662;-78
2023/04/03 11:05:34;;;;;;;3.30;0.80;;;21.60;99.90;;;;;;5094828;28;20202;-77
2023/04/03 11:08:12;;;;;;;2.40;0.90;;;21.60;99.90;;;;;;5078477;28;20963;-78
2023/04/03 11:10:47;;;;;;;6.43;1.10;;;21.60;99.90;;;;;;5090138;28;20582;-79
2023/04/03 11:13:22;;;;;;;6.25;1.10;;;21.60;99.90;;;;;;5082885;28;20223;-80
2023/04/03 11:15:57;;;;;;;2.30;0.80;;;21.60;99.90;;;;;;5078156;28;20253;-77
2023/04/03 11:18:35;;;;;;;7.70;1.15;;;21.50;99.90;;;;;;5075148;28;20195;-78
2023/04/03 11:21:10;;;;;;;5.45;0.80;;;21.50;99.90;;;;;;5075977;28;20203;-77
2023/04/03 11:23:43;;;;;;;6.93;0.90;;;21.50;99.90;;;;;;5074248;28;20630;-77
2023/04/03 11:26:18;;;;;;;6.00;1.10;;;21.50;99.90;;;;;;5095502;28;20251;-77
2023/04/03 11:28:49;;;;;;;3.53;0.90;;;21.50;99.90;;;;;;5087218;28;20301;-78
2023/04/03 11:31:45;;;;;;;4.28;0.88;;;21.40;99.90;;;;;;5081419;28;20635;-81
2023/04/03 11:34:29;;;;;;;4.63;1.08;;;21.40;99.90;;;;;;5083140;28;20231;-78
2023/04/03 11:37:02;;;;;;;5.22;0.95;;;21.40;99.90;;;;;;5079373;28;20217;-78
2023/04/03 11:39:38;;;;;;;6.50;1.00;;;21.40;99.90;;;;;;5087856;28;20199;-79
2023/04/03 11:42:27;;;;;;;9.60;1.17;;;21.40;99.90;;;;;;5095130;28;20806;-79
2023/04/03 11:45:27;;;;;;;3.70;0.80;;;21.40;99.90;;;;;;5095011;28;20198;-79
2023/04/03 11:48:01;;;;;;;3.65;0.85;;;21.40;99.90;;;;;;5094644;28;20202;-78
2023/04/03 11:50:45;;;;;;;5.28;0.88;;;21.40;99.90;;;;;;5090736;28;20192;-79
2023/04/03 11:53:46;;;;;;;3.35;1.20;;;21.40;99.90;;;;;;5094209;28;20223;-78
2023/04/03 11:56:32;;;;;;;4.57;1.05;;;21.30;99.90;;;;;;5052952;28;20203;-78
2023/04/03 11:59:27;;;;;;;4.10;0.95;;;21.40;99.90;;;;;;5081804;28;20203;-78
2023/04/03 12:01:59;;;;;;;3.90;1.02;;;21.30;99.90;;;;;;5085025;28;20653;-79
2023/04/03 12:04:32;;;;;;;7.32;0.82;;;21.30;99.90;;;;;;5093701;28;20562;-78
2023/04/03 12:07:22;;;;;;;2.75;0.60;;;21.30;99.90;;;;;;5075716;28;20535;-77
2023/04/03 12:10:02;;;;;;;3.80;1.00;;;21.20;99.90;;;;;;5087586;28;20191;-77
2023/04/03 12:12:44;;;;;;;3.00;0.90;;;21.30;99.90;;;;;;5090181;28;20252;-78
2023/04/03 12:15:44;;;;;;;3.58;1.00;;;21.30;99.90;;;;;;5072683;28;20242;-77
2023/04/03 12:18:47;;;;;;;4.85;1.00;;;21.30;99.90;;;;;;5073634;28;20562;-78
2023/04/03 12:21:21;;;;;;;4.22;0.82;;;21.20;99.90;;;;;;5069245;28;20594;-78
2023/04/03 12:24:25;;;;;;;4.53;1.00;;;21.20;99.90;;;;;;5071177;28;20200;-77
2023/04/03 12:27:16;;;;;;;5.47;0.80;;;21.20;99.90;;;;;;5083187;28;20202;-77
2023/04/03 12:29:54;;;;;;;8.13;1.13;;;21.20;99.90;;;;;;5092143;28;20194;-77
2023/04/03 12:32:47;;;;;;;7.53;1.05;;;21.10;99.90;;;;;;5089111;28;20199;-78
2023/04/03 12:35:31;;;;;;;6.47;1.00;;;21.10;99.90;;;;;;5077075;28;20615;-79
2023/04/03 12:38:35;;;;;;;3.45;0.73;;;21.10;99.90;;;;;;5080573;28;20200;-78
2023/04/03 12:41:25;;;;;;;4.45;1.00;;;21.10;99.90;;;;;;5089461;28;20207;-78
2023/04/03 12:44:24;;;;;;;5.35;0.95;;;21.10;99.90;;;;;;5091881;28;20231;-78
2023/04/03 12:46:56;;;;;;;6.20;1.02;;;21.10;99.90;;;;;;5093193;28;20199;-79
2023/04/03 12:49:39;;;;;;;4.60;1.08;;;21.00;99.90;;;;;;5093508;28;20210;-78
2023/04/03 12:52:23;;;;;;;8.30;1.33;;;21.00;99.90;;;;;;5089290;28;20219;-79
2023/04/03 12:54:57;;;;;;;4.95;1.27;;;21.00;99.90;;;;;;5077576;28;20196;-78
2023/04/03 12:57:30;;;;;;;5.97;1.08;;;20.90;99.90;;;;;;5080101;28;20229;-78
2023/04/03 13:00:03;;;;;;;8.55;1.50;;;20.90;99.90;;;;;;5080914;28;20693;-79
2023/04/03 13:02:35;;;;;;;4.07;0.80;;;20.90;99.90;;;;;;5078197;28;20191;-78
2023/04/03 13:05:11;;;;;;;6.45;1.05;;;20.90;99.90;;;;;;5089386;28;20315;-78
2023/04/03 13:07:43;;;;;;;8.35;1.25;;;20.90;99.90;;;;;;5084785;28;20610;-77
2023/04/03 13:10:21;;;;;;;5.50;1.48;;;20.90;99.90;;;;;;5092162;28;20199;-78
2023/04/03 13:12:54;;;;;;;3.65;1.42;;;20.80;99.90;;;;;;5093109;28;20686;-78
2023/04/03 13:15:27;;;;;;;5.78;1.33;;;20.80;99.90;;;;;;5090439;28;20721;-78
2023/04/03 13:17:59;;;;;;;3.95;1.20;;;20.80;99.90;;;;;;5085872;28;20206;-77
2023/04/03 13:20:32;;;;;;;4.18;1.17;;;20.80;99.90;;;;;;5088514;28;20194;-78
2023/04/03 13:23:05;;;;;;;4.03;1.23;;;20.80;99.90;;;;;;5090132;28;20206;-77
2023/04/03 13:25:42;;;;;;;4.07;1.23;;;20.80;99.90;;;;;;5088754;28;20196;-78
2023/04/03 13:28:18;;;;;;;6.45;1.33;;;20.80;99.90;;;;;;5089039;28;20191;-78